Time;durP1;ratioP1;P1;durP2;ratioP2;P2;SDS_P1;SDS_P2;PMS_P1;PMS_P2;Temp;Humidity;BMP_temperature;BMP_pressure;BME280_temperature;BME280_humidity;BME280_pressure;Samples;Min_cycle;Max_cycle;Signal;HPM_P1;HPM_P2
2021/11/12 00:04:18;;;;;;;7.93;4.05;;;;;;;13.53;62.89;100617.94;4847305;29;20048;-95
2021/11/12 00:14:45;;;;;;;8.80;4.28;;;;;;;13.40;64.57;100610.94;4846133;29;20018;-96
2021/11/12 00:17:11;;;;;;;8.15;4.43;;;;;;;13.47;64.62;100604.25;4845733;29;20037;-96
2021/11/12 00:19:37;;;;;;;9.43;3.78;;;;;;;13.60;64.54;100601.47;4845488;29;20036;-96
2021/11/12 00:22:03;;;;;;;8.77;4.40;;;;;;;13.69;64.57;100595.50;4845537;29;20036;-95
2021/11/12 00:24:28;;;;;;;6.85;4.05;;;;;;;13.71;64.76;100594.56;4844501;29;20120;-95
2021/11/12 00:26:53;;;;;;;7.97;4.28;;;;;;;13.78;64.72;100595.75;4845517;29;20082;-96
2021/11/12 00:29:19;;;;;;;8.50;4.00;;;;;;;13.87;64.70;100601.13;4845907;29;20101;-96
2021/11/12 00:31:51;;;;;;;9.70;4.10;;;;;;;13.93;64.29;100591.06;4845746;29;20090;-96
2021/11/12 00:37:12;;;;;;;9.88;4.30;;;;;;;13.92;64.79;100573.53;4815540;29;20041;-95
2021/11/12 00:39:49;;;;;;;10.57;4.15;;;;;;;13.82;65.03;100561.09;4844694;29;20041;-95
2021/11/12 00:42:19;;;;;;;7.22;4.38;;;;;;;14.07;64.80;100569.69;4844811;29;20030;-95
2021/11/12 00:44:49;;;;;;;7.88;4.57;;;;;;;14.17;64.59;100565.34;4844350;29;20033;-96
2021/11/12 00:55:23;;;;;;;8.45;4.43;;;;;;;14.27;64.24;100534.56;4844339;29;20116;-96
2021/11/12 00:57:49;;;;;;;17.05;4.63;;;;;;;14.50;63.93;100534.50;4844409;29;20026;-96
2021/11/12 01:00:16;;;;;;;13.65;4.40;;;;;;;14.48;63.63;100517.94;4843664;29;20034;-96
2021/11/12 01:02:42;;;;;;;9.38;4.60;;;;;;;14.61;62.88;100521.28;4843792;29;20102;-96
2021/11/12 01:05:08;;;;;;;10.55;4.20;;;;;;;14.58;62.91;100508.31;4843613;29;20036;-96
2021/11/12 01:07:35;;;;;;;9.60;4.28;;;;;;;14.28;63.53;100506.38;4843755;29;20488;-96
2021/11/12 01:10:00;;;;;;;12.65;4.35;;;;;;;14.51;63.69;100498.34;4843954;29;20402;-96
2021/11/12 01:12:26;;;;;;;12.52;5.22;;;;;;;14.41;63.96;100495.63;4844365;29;20026;-96
2021/11/12 01:14:52;;;;;;;12.40;4.75;;;;;;;14.54;63.64;100493.66;4844083;29;20022;-96
2021/11/12 01:17:18;;;;;;;11.93;4.30;;;;;;;14.41;63.50;100498.28;4844408;29;20030;-95
2021/11/12 01:19:43;;;;;;;11.02;5.22;;;;;;;14.41;63.86;100503.56;4844126;29;20026;-96
2021/11/12 01:22:10;;;;;;;8.90;4.82;;;;;;;14.55;63.65;100502.41;4843385;29;20030;-96
2021/11/12 01:24:36;;;;;;;12.93;4.35;;;;;;;14.65;63.51;100498.06;4843333;29;20493;-96
2021/11/12 01:27:02;;;;;;;9.95;4.30;;;;;;;14.58;63.75;100502.19;4843339;29;20026;-96
2021/11/12 01:29:28;;;;;;;12.50;5.05;;;;;;;14.40;64.18;100491.31;4843003;29;20130;-96
2021/11/12 01:31:53;;;;;;;12.88;4.70;;;;;;;14.49;64.04;100501.09;4842762;29;20030;-96
2021/11/12 01:34:19;;;;;;;13.38;4.45;;;;;;;14.46;64.33;100483.72;4843035;29;20045;-94
2021/11/12 01:36:46;;;;;;;10.85;4.45;;;;;;;14.51;63.92;100471.94;4842613;29;20033;-96
2021/11/12 01:39:16;;;;;;;9.90;4.63;;;;;;;14.70;63.43;100461.53;4843440;29;20057;-96
2021/11/12 01:41:47;;;;;;;13.38;4.82;;;;;;;14.54;63.93;100461.13;4842801;29;20113;-96
2021/11/12 01:44:13;;;;;;;9.65;4.50;;;;;;;14.67;64.11;100454.69;4842430;29;20030;-95
2021/11/12 01:46:51;;;;;;;14.02;4.60;;;;;;;14.72;63.71;100458.75;4842556;29;20046;-95
2021/11/12 01:49:22;;;;;;;11.52;4.32;;;;;;;14.80;63.22;100459.78;4842902;29;20030;-95
2021/11/12 01:55:11;;;;;;;12.10;4.78;;;;;;;14.82;63.88;100449.06;4843820;29;20128;-94
2021/11/12 01:57:49;;;;;;;9.63;3.80;;;;;;;14.87;63.51;100441.59;4865093;29;20071;-95
2021/11/12 02:00:19;;;;;;;12.90;4.40;;;;;;;14.86;63.35;100432.81;4861689;29;20067;-93
2021/11/12 02:02:45;;;;;;;9.35;4.82;;;;;;;14.96;63.26;100429.38;4862740;29;20027;-92
2021/11/12 02:05:10;;;;;;;15.10;5.22;;;;;;;15.11;62.92;100424.59;4865112;29;20055;-94
2021/11/12 02:07:37;;;;;;;10.73;4.68;;;;;;;15.23;62.53;100439.41;4863788;29;20041;-96
2021/11/12 02:10:24;;;;;;;10.05;4.50;;;;;;;15.14;63.12;100440.19;4865246;29;20033;-95
2021/11/12 02:13:10;;;;;;;11.15;4.63;;;;;;;15.29;62.84;100430.91;4858622;29;20060;-96
2021/11/12 02:15:38;;;;;;;11.80;4.28;;;;;;;15.50;62.18;100430.84;4844429;29;20069;-96
2021/11/12 02:18:14;;;;;;;11.05;4.28;;;;;;;15.41;62.62;100437.78;4850593;29;20033;-94
2021/11/12 02:20:59;;;;;;;13.43;4.60;;;;;;;15.56;62.19;100426.81;4866089;29;20018;-94
2021/11/12 02:23:33;;;;;;;15.85;4.97;;;;;;;15.64;62.01;100408.47;4863510;29;20022;-94
2021/11/12 02:25:58;;;;;;;12.70;3.72;;;;;;;15.59;62.03;100405.38;4862575;29;20054;-95
2021/11/12 02:28:27;;;;;;;15.25;4.25;;;;;;;15.71;61.60;100401.63;4865213;29;20041;-93
2021/11/12 02:30:53;;;;;;;9.52;3.78;;;;;;;15.63;62.29;100386.41;4862380;29;20072;-94
2021/11/12 02:33:23;;;;;;;10.85;4.03;;;;;;;15.85;61.71;100388.00;4864258;29;20029;-94
2021/11/12 02:36:05;;;;;;;10.15;4.13;;;;;;;15.78;61.69;100371.00;4861775;29;20034;-96
2021/11/12 02:38:34;;;;;;;10.38;3.38;;;;;;;15.81;61.03;100362.78;4845180;29;20109;-95
2021/11/12 02:40:59;;;;;;;12.45;4.32;;;;;;;15.90;61.12;100368.25;4844216;29;20417;-96
2021/11/12 02:43:26;;;;;;;10.80;3.60;;;;;;;15.77;61.86;100350.78;4843798;29;20041;-95
2021/11/12 02:45:52;;;;;;;17.80;4.18;;;;;;;15.64;62.25;100339.63;4843409;29;20113;-96
2021/11/12 02:48:18;;;;;;;9.40;3.83;;;;;;;15.90;61.14;100342.59;4846221;29;20078;-96
2021/11/12 02:50:44;;;;;;;8.23;3.67;;;;;;;16.04;60.72;100342.16;4846548;29;20034;-95
2021/11/12 02:53:15;;;;;;;8.00;3.53;;;;;;;16.08;60.89;100342.72;4846115;29;20034;-95
2021/11/12 02:55:42;;;;;;;11.70;3.88;;;;;;;16.11;60.67;100331.00;4846676;29;20035;-95
2021/11/12 02:58:07;;;;;;;7.75;3.30;;;;;;;16.15;60.50;100327.94;4846260;29;20064;-96
2021/11/12 03:00:36;;;;;;;14.15;3.50;;;;;;;16.07;60.97;100322.47;4845800;29;20054;-96
2021/11/12 03:03:02;;;;;;;11.13;3.47;;;;;;;16.14;60.73;100320.13;4845894;29;20393;-96
2021/11/12 03:05:30;;;;;;;10.98;3.42;;;;;;;16.15;60.97;100320.00;4845380;29;20048;-96
2021/11/12 03:07:55;;;;;;;10.07;4.07;;;;;;;16.25;60.64;100310.19;4845580;29;20092;-96
2021/11/12 03:10:21;;;;;;;12.25;3.38;;;;;;;16.19;60.95;100301.97;4845329;29;20026;-95
2021/11/12 03:12:46;;;;;;;9.80;3.47;;;;;;;16.26;60.65;100300.44;4845006;29;20110;-96
2021/11/12 03:15:11;;;;;;;10.18;3.53;;;;;;;16.21;60.73;100300.88;4845373;29;20125;-95
2021/11/12 03:17:38;;;;;;;7.70;3.70;;;;;;;15.97;61.84;100298.66;4845589;29;20123;-96
2021/11/12 03:20:07;;;;;;;10.98;3.90;;;;;;;16.10;61.63;100293.09;4845244;29;20034;-95
2021/11/12 03:22:40;;;;;;;13.50;3.72;;;;;;;16.37;60.41;100272.91;4845587;29;20378;-95
2021/11/12 03:25:10;;;;;;;12.02;3.38;;;;;;;16.46;60.32;100269.41;4845513;29;20117;-95
2021/11/12 03:27:46;;;;;;;11.60;3.42;;;;;;;16.37;61.00;100268.47;4844175;29;20033;-95
2021/11/12 03:49:55;;;;;;;18.02;4.07;;;;;;;16.18;62.24;100208.44;4844815;29;20041;-96
2021/11/12 04:19:28;;;;;;;11.77;3.88;;;;;;;16.55;63.09;100169.66;4844945;29;20458;-96
2021/11/12 04:22:23;;;;;;;11.65;3.83;;;;;;;16.65;62.97;100181.84;4845092;29;20057;-96
2021/11/12 05:52:13;;;;;;;2.40;1.30;;;;;;;16.41;71.58;100078.19;4838453;29;20049;-96
2021/11/12 05:57:23;;;;;;;4.05;1.75;;;;;;;16.62;71.05;100065.50;4848987;29;20089;-96
2021/11/12 05:59:48;;;;;;;4.00;2.13;;;;;;;16.39;71.92;100069.56;4844411;29;20431;-96
2021/11/12 06:02:14;;;;;;;8.52;2.83;;;;;;;16.59;71.73;100063.16;4844957;29;20041;-96
2021/11/12 06:04:39;;;;;;;3.33;2.08;;;;;;;16.83;70.64;100057.28;4847687;29;20045;-96
2021/11/12 06:07:05;;;;;;;9.18;2.42;;;;;;;16.76;70.81;100058.81;4849722;29;20115;-96
2021/11/12 06:09:31;;;;;;;8.30;3.03;;;;;;;16.75;70.86;100053.69;4851513;29;20086;-96
2021/11/12 06:11:56;;;;;;;5.70;2.40;;;;;;;16.65;71.62;100049.31;4853219;29;20089;-96
2021/11/12 06:14:23;;;;;;;6.28;2.50;;;;;;;17.33;69.17;100047.81;4857849;29;20064;-96
2021/11/12 06:16:49;;;;;;;3.72;2.03;;;;;;;17.39;68.87;100052.50;4859507;29;20026;-96
2021/11/12 06:19:16;;;;;;;6.70;1.90;;;;;;;17.07;70.18;100049.66;4850192;29;20026;-96
2021/11/12 06:21:42;;;;;;;4.60;2.10;;;;;;;17.37;69.37;100049.19;4855890;29;20030;-96
2021/11/12 06:24:08;;;;;;;5.70;2.58;;;;;;;17.10;69.84;100036.94;4861822;29;20038;-96
2021/11/12 06:26:33;;;;;;;4.47;1.90;;;;;;;16.78;71.13;100042.78;4866725;29;20022;-96
2021/11/12 06:29:00;;;;;;;6.13;1.85;;;;;;;16.82;71.52;100054.75;4869968;29;20062;-95
2021/11/12 06:31:26;;;;;;;2.20;1.30;;;;;;;17.40;69.45;100048.88;4870353;29;20045;-96
2021/11/12 06:33:54;;;;;;;3.20;1.88;;;;;;;17.34;68.79;100049.50;4946852;23;20037;-96
2021/11/12 06:36:21;;;;;;;5.15;1.50;;;;;;;17.18;69.85;100057.34;4888619;29;20044;-95
2021/11/12 06:38:47;;;;;;;7.70;2.15;;;;;;;16.80;71.52;100046.09;4887604;29;20044;-96
2021/11/12 06:41:14;;;;;;;6.25;2.08;;;;;;;17.29;69.57;100035.88;4888435;29;20061;-96
2021/11/12 06:43:54;;;;;;;4.35;1.40;;;;;;;17.13;70.58;100057.00;4885093;29;20026;-96
2021/11/12 06:49:19;;;;;;;6.10;1.70;;;;;;;17.10;70.90;100052.00;4873583;29;20049;-96
2021/11/12 06:51:46;;;;;;;4.45;1.38;;;;;;;17.11;70.83;100054.50;4873069;29;20037;-96
2021/11/12 06:54:12;;;;;;;4.25;1.30;;;;;;;17.11;70.82;100056.31;4872320;29;20060;-96
2021/11/12 06:56:38;;;;;;;3.47;1.48;;;;;;;17.17;70.78;100053.03;4874688;29;20093;-96
2021/11/12 06:59:03;;;;;;;3.50;1.00;;;;;;;17.28;70.64;100065.19;4879858;29;20030;-96
2021/11/12 07:01:30;;;;;;;1.92;1.10;;;;;;;17.68;68.89;100056.66;4877777;29;20030;-96
2021/11/12 07:03:57;;;;;;;2.63;1.27;;;;;;;17.51;69.39;100065.50;4876555;29;20108;-96
2021/11/12 07:06:23;;;;;;;4.95;1.48;;;;;;;17.44;69.52;100063.50;4875017;29;20476;-96
2021/11/12 07:08:49;;;;;;;4.03;1.30;;;;;;;17.70;68.85;100064.47;4872275;29;20109;-96
2021/11/12 07:11:14;;;;;;;4.35;1.17;;;;;;;17.65;69.06;100067.56;4875326;29;20033;-96
2021/11/12 07:13:40;;;;;;;1.95;0.90;;;;;;;17.69;68.88;100058.31;4878584;29;20124;-96
2021/11/12 07:16:05;;;;;;;4.35;0.88;;;;;;;17.05;70.49;100045.34;4876018;29;20037;-96
2021/11/12 07:18:31;;;;;;;5.65;1.00;;;;;;;17.02;70.16;100040.34;4876898;29;20026;-96
2021/11/12 07:20:57;;;;;;;7.22;1.60;;;;;;;16.57;71.18;100057.19;4861926;29;20105;-95
2021/11/12 07:23:24;;;;;;;8.50;1.33;;;;;;;16.43;69.86;100034.69;4861264;29;20504;-96
2021/11/12 07:25:51;;;;;;;10.50;1.38;;;;;;;16.74;68.83;100042.25;4861868;29;20030;-93
2021/11/12 07:28:16;;;;;;;5.65;1.42;;;;;;;17.28;67.14;100038.66;4860207;29;20037;-94
2021/11/12 07:30:42;;;;;;;4.57;0.80;;;;;;;17.05;67.98;100042.69;4860563;29;20025;-94
2021/11/12 07:33:11;;;;;;;5.28;0.80;;;;;;;17.33;67.67;100031.91;4860275;29;20088;-94
2021/11/12 07:35:44;;;;;;;5.45;0.98;;;;;;;17.12;67.73;100024.34;4859260;29;20433;-94
2021/11/12 07:38:13;;;;;;;4.00;0.55;;;;;;;17.41;66.88;100031.13;4865526;29;20038;-95
2021/11/12 07:41:23;;;;;;;6.03;1.10;;;;;;;17.36;66.39;100036.91;4880141;29;20054;-96
2021/11/12 07:51:13;;;;;;;9.98;1.40;;;;;;;17.08;66.96;100022.13;5150806;23;20054;-96
2021/11/12 07:53:39;;;;;;;11.30;1.58;;;;;;;17.13;66.65;100033.13;4843685;29;20042;-95
2021/11/12 07:56:05;;;;;;;11.02;1.85;;;;;;;16.81;67.27;100045.13;4836123;29;20014;-96
2021/11/12 07:58:31;;;;;;;12.10;2.78;;;;;;;16.90;67.10;100030.13;4849405;29;20078;-96
2021/11/12 08:00:57;;;;;;;10.95;1.70;;;;;;;17.20;66.36;100034.16;5356239;23;20043;-96
2021/11/12 08:03:22;;;;;;;13.05;1.98;;;;;;;17.16;66.99;100038.94;4895883;23;20522;-94
2021/11/12 08:05:51;;;;;;;13.20;2.10;;;;;;;17.17;66.92;100053.88;4861343;29;20033;-94
2021/11/12 08:08:19;;;;;;;12.68;1.98;;;;;;;17.27;66.53;100052.94;4860839;29;20057;-93
2021/11/12 08:13:20;;;;;;;16.77;2.58;;;;;;;17.44;65.74;100062.66;4860282;29;20030;-92
2021/11/12 08:19:20;;;;;;;21.73;2.95;;;;;;;17.42;65.76;100057.50;4854674;29;20113;-94
2021/11/12 08:21:22;;;;;;;18.77;3.28;;;;;;;17.10;66.00;100041.38;4906775;23;20044;-96
2021/11/12 08:26:27;;;;;;;15.73;3.13;;;;;;;17.11;65.63;100056.31;4843096;29;20386;-93
2021/11/12 08:31:26;;;;;;;21.48;3.08;;;;;;;16.41;66.34;100054.34;4833559;29;20034;-96
2021/11/12 08:33:55;;;;;;;19.65;3.55;;;;;;;16.78;64.31;100042.78;4826912;29;20030;-95
2021/11/12 08:36:38;;;;;;;21.38;4.32;;;;;;;16.82;64.42;100050.31;4829423;29;20167;-96
2021/11/12 08:39:11;;;;;;;23.05;4.20;;;;;;;16.46;64.13;100044.16;4850804;29;20097;-96
2021/11/12 08:41:42;;;;;;;28.50;4.32;;;;;;;16.74;62.95;100052.00;4841125;29;20102;-96
2021/11/12 08:44:17;;;;;;;15.65;3.13;;;;;;;16.71;63.44;100063.75;4837378;29;20382;-94
2021/11/12 08:46:53;;;;;;;20.83;3.85;;;;;;;16.77;63.27;100059.69;4828434;29;20043;-93
2021/11/12 08:49:31;;;;;;;26.42;4.13;;;;;;;16.58;64.30;100058.00;4828311;29;20034;-95
2021/11/12 08:51:58;;;;;;;22.48;4.80;;;;;;;16.72;63.77;100052.16;4834082;29;20490;-95
2021/11/12 08:54:26;;;;;;;22.42;4.40;;;;;;;17.08;63.31;100046.88;4831266;29;20089;-94
2021/11/12 08:56:53;;;;;;;24.38;5.10;;;;;;;17.12;63.09;100029.66;4825109;29;20037;-96
2021/11/12 08:59:18;;;;;;;26.60;4.20;;;;;;;17.08;63.43;100027.44;4838829;29;20037;-96
2021/11/12 09:01:44;;;;;;;18.00;3.83;;;;;;;17.03;62.57;100028.75;4830582;29;20054;-95
2021/11/12 09:04:10;;;;;;;28.50;4.80;;;;;;;17.10;62.42;100020.16;4824240;29;20215;-96
2021/11/12 09:06:35;;;;;;;24.58;4.78;;;;;;;16.83;63.40;100008.72;4825321;29;20042;-96
2021/11/12 09:09:02;;;;;;;33.30;6.13;;;;;;;17.08;63.41;100006.22;4826363;29;20026;-95
2021/11/12 09:11:28;;;;;;;42.78;7.45;;;;;;;17.02;62.88;99982.00;4834202;29;20072;-94
2021/11/12 09:14:05;;;;;;;31.30;5.13;;;;;;;17.28;62.34;99985.59;4844210;29;20026;-96
2021/11/12 09:16:33;;;;;;;27.33;4.50;;;;;;;17.58;62.29;99989.56;4835719;29;20125;-94
2021/11/12 09:19:07;;;;;;;25.10;4.35;;;;;;;17.69;61.83;99985.78;4814942;29;20026;-95
2021/11/12 09:21:33;;;;;;;23.13;4.32;;;;;;;17.72;61.44;99961.59;4827342;29;20034;-96
2021/11/12 09:23:59;;;;;;;28.98;4.32;;;;;;;17.73;59.87;99956.13;4845470;29;20030;-96
2021/11/12 09:26:25;;;;;;;24.02;3.35;;;;;;;18.13;60.65;99953.75;4846827;29;20086;-96
2021/11/12 09:28:51;;;;;;;21.67;3.60;;;;;;;18.19;60.44;99953.91;4832341;29;20038;-96
2021/11/12 09:33:44;;;;;;;20.23;3.13;;;;;;;18.21;60.23;99935.97;4865679;29;20038;-96
2021/11/12 09:36:11;;;;;;;20.98;3.70;;;;;;;18.16;61.23;99958.72;4853204;29;20101;-96
2021/11/12 09:38:39;;;;;;;26.95;4.30;;;;;;;18.11;61.33;99969.84;4868856;29;20438;-96
2021/11/12 09:41:06;;;;;;;23.42;4.25;;;;;;;18.49;60.42;99967.53;4860497;29;20565;-96
2021/11/12 09:43:32;;;;;;;17.50;3.83;;;;;;;18.78;60.47;99950.25;4864699;29;20044;-96
2021/11/12 09:46:01;;;;;;;24.17;4.63;;;;;;;18.78;60.31;99953.72;5063251;23;20049;-95
2021/11/12 09:56:12;;;;;;;25.73;4.65;;;;;;;21.10;53.67;99936.19;4954843;23;20054;-95
2021/11/12 10:01:13;;;;;;;25.88;4.65;;;;;;;21.90;51.60;99956.72;5136820;23;20065;-93
2021/11/12 10:03:45;;;;;;;23.45;4.30;;;;;;;22.23;51.36;99944.69;5424941;23;20136;-95
2021/11/12 10:06:19;;;;;;;25.63;4.82;;;;;;;21.20;50.56;99940.22;5297991;23;20035;-96
2021/11/12 10:08:45;;;;;;;21.33;4.43;;;;;;;22.11;49.47;99942.53;4994830;23;20065;-96
2021/11/12 10:11:18;;;;;;;26.83;5.25;;;;;;;21.65;51.39;99945.53;4868431;29;20013;-95
2021/11/12 10:13:47;;;;;;;28.30;4.68;;;;;;;20.95;51.85;99950.38;4916759;23;20013;-95
2021/11/12 10:21:19;;;;;;;24.15;5.50;;;;;;;20.05;53.77;99937.78;5352787;23;20105;-96
2021/11/12 10:23:45;;;;;;;25.92;6.25;;;;;;;20.45;53.38;99927.78;4859199;29;20038;-96
2021/11/12 10:26:11;;;;;;;25.15;4.82;;;;;;;20.21;53.27;99950.97;4916429;23;20069;-96
2021/11/12 10:28:42;;;;;;;16.55;3.72;;;;;;;19.45;54.75;99938.41;4941066;23;20056;-94
2021/11/12 10:31:18;;;;;;;19.92;4.45;;;;;;;20.20;54.29;99962.66;4869140;29;20061;-95
2021/11/12 10:33:49;;;;;;;23.75;4.45;;;;;;;19.31;56.15;99945.28;4865844;29;20053;-96
2021/11/12 10:36:15;;;;;;;23.88;4.47;;;;;;;19.59;56.12;99961.66;4859099;29;20053;-94
2021/11/12 10:38:41;;;;;;;27.90;5.10;;;;;;;19.64;56.10;99955.81;4864231;29;20029;-94
2021/11/12 10:41:19;;;;;;;22.52;5.13;;;;;;;19.56;55.45;99952.16;4860925;29;20117;-95
2021/11/12 10:43:45;;;;;;;31.02;5.40;;;;;;;19.25;56.79;99952.13;4861136;29;20040;-96
2021/11/12 10:46:10;;;;;;;30.15;5.50;;;;;;;19.54;56.48;99948.84;4863239;29;20025;-96
2021/11/12 10:48:36;;;;;;;32.70;6.18;;;;;;;18.85;57.97;99963.72;4864566;29;20057;-94
2021/11/12 10:51:19;;;;;;;34.92;5.68;;;;;;;19.46;57.18;99956.88;4865079;29;20377;-95
2021/11/12 10:53:52;;;;;;;30.52;5.72;;;;;;;19.48;57.22;99944.22;4862953;29;20045;-94
2021/11/12 10:56:21;;;;;;;26.10;5.93;;;;;;;19.79;56.13;99930.13;4861007;29;20070;-95
2021/11/12 10:58:58;;;;;;;33.10;6.07;;;;;;;19.64;56.40;99937.97;4862714;29;20039;-94
2021/11/12 11:01:36;;;;;;;32.35;5.93;;;;;;;19.74;55.45;99919.97;4869433;29;20022;-94
2021/11/12 11:04:22;;;;;;;32.38;6.75;;;;;;;19.11;57.24;99921.72;4862933;29;20072;-96
2021/11/12 11:06:50;;;;;;;39.40;6.15;;;;;;;18.92;58.59;99933.63;5144137;23;20054;-96
2021/11/12 11:09:18;;;;;;;42.25;8.07;;;;;;;18.99;57.45;99920.44;4845180;29;20091;-96
2021/11/12 11:11:45;;;;;;;30.58;6.05;;;;;;;19.16;57.35;99943.34;4853166;29;20069;-95
2021/11/12 11:14:47;;;;;;;33.55;6.18;;;;;;;19.34;56.63;99927.16;4854491;29;20026;-96
2021/11/12 11:17:26;;;;;;;30.40;5.72;;;;;;;19.17;57.66;99920.22;4831606;29;20050;-96
2021/11/12 11:19:53;;;;;;;34.53;5.72;;;;;;;19.56;57.47;99925.53;4852068;29;20038;-96
2021/11/12 11:22:18;;;;;;;33.78;7.47;;;;;;;19.09;58.58;99923.75;4847913;29;20121;-95
2021/11/12 11:24:48;;;;;;;34.28;5.78;;;;;;;19.43;57.65;99935.91;4853895;29;20053;-96
2021/11/12 11:27:13;;;;;;;32.25;6.03;;;;;;;18.95;58.63;99933.25;4852643;29;20022;-95
2021/11/12 11:29:38;;;;;;;32.03;6.00;;;;;;;19.22;57.75;99934.69;4848415;29;20037;-96
2021/11/12 11:32:05;;;;;;;31.27;5.88;;;;;;;18.87;59.09;99938.59;4850507;29;20034;-96
2021/11/12 11:34:32;;;;;;;37.75;7.03;;;;;;;18.75;58.57;99939.94;4855612;29;20053;-96
2021/11/12 11:37:01;;;;;;;39.13;5.47;;;;;;;19.12;57.55;99941.22;4851772;29;20442;-92
2021/11/12 11:39:28;;;;;;;34.25;6.35;;;;;;;18.91;58.12;99941.75;4846019;29;20040;-95
2021/11/12 11:41:53;;;;;;;36.67;6.68;;;;;;;18.59;58.09;99936.28;4851607;29;20042;-96
2021/11/12 11:44:20;;;;;;;31.13;5.63;;;;;;;19.33;56.87;99933.50;4857327;29;20077;-96
2021/11/12 11:46:49;;;;;;;26.52;5.45;;;;;;;19.35;56.19;99928.81;4858712;29;20034;-96
2021/11/12 11:49:21;;;;;;;30.80;5.53;;;;;;;19.22;56.43;99934.69;4858450;29;20026;-96
2021/11/12 11:51:53;;;;;;;37.67;7.03;;;;;;;19.21;56.44;99926.84;4861634;29;20034;-96
2021/11/12 11:59:37;;;;;;;39.70;6.80;;;;;;;18.61;56.69;99877.63;4946556;23;20085;-96
2021/11/12 12:07:20;;;;;;;34.05;7.85;;;;;;;18.80;57.29;99871.16;5222453;23;20042;-96
2021/11/12 12:10:02;;;;;;;30.00;5.63;;;;;;;19.11;56.49;99870.34;4876194;29;20038;-96
2021/11/12 12:20:31;;;;;;;30.10;6.07;;;;;;;19.01;57.46;99874.03;5191341;23;20061;-96
2021/11/12 12:36:55;;;;;;;42.58;7.40;;;;;;;18.44;61.48;99882.13;5464136;23;20058;-96
2021/11/12 13:25:46;;;;;;;38.95;6.63;;;;;;;17.54;65.66;99832.44;4848697;29;20030;-94
2021/11/12 13:28:18;;;;;;;29.38;5.70;;;;;;;17.50;66.31;99830.31;4842100;29;20041;-95
2021/11/12 13:31:12;;;;;;;28.00;5.25;;;;;;;17.47;65.64;99831.44;4841817;29;20500;-95
2021/11/12 13:33:38;;;;;;;25.13;5.10;;;;;;;17.38;66.17;99833.25;4839769;29;20116;-95
2021/11/12 13:36:20;;;;;;;27.40;4.32;;;;;;;17.77;64.89;99827.34;4842363;29;20116;-95
2021/11/12 13:38:50;;;;;;;23.42;4.13;;;;;;;18.13;64.60;99836.84;4842339;29;20030;-94
2021/11/12 13:41:18;;;;;;;24.98;5.70;;;;;;;17.93;64.08;99841.63;4841595;29;20038;-94
2021/11/12 13:43:45;;;;;;;22.73;2.85;;;;;;;18.02;63.39;99836.16;4841225;29;20029;-92
2021/11/12 13:46:11;;;;;;;14.95;2.97;;;;;;;17.96;64.00;99841.31;4842384;29;20084;-95
2021/11/12 13:48:51;;;;;;;17.13;2.22;;;;;;;17.77;64.03;99845.94;4841623;29;20061;-95
2021/11/12 13:51:24;;;;;;;13.35;2.75;;;;;;;17.54;65.60;99843.06;4842676;29;20026;-96
2021/11/12 13:53:50;;;;;;;14.73;2.20;;;;;;;16.80;66.88;99831.34;4832279;29;20034;-96
2021/11/12 13:56:15;;;;;;;18.27;2.83;;;;;;;17.65;64.59;99833.94;4842512;29;20030;-96
2021/11/12 13:58:41;;;;;;;19.13;3.45;;;;;;;16.84;66.75;99848.63;4841229;29;20049;-96
2021/11/12 14:01:24;;;;;;;29.00;3.42;;;;;;;17.40;65.41;99841.06;4847573;29;20034;-96
2021/11/12 14:03:50;;;;;;;19.98;3.80;;;;;;;17.31;65.31;99836.72;4847434;29;20113;-96
2021/11/12 14:06:18;;;;;;;23.85;4.85;;;;;;;17.74;64.31;99832.97;4850001;29;20038;-96
2021/11/12 14:08:50;;;;;;;22.05;3.92;;;;;;;17.83;64.43;99840.00;4858089;29;20033;-96
2021/11/12 14:11:20;;;;;;;20.33;4.72;;;;;;;17.74;64.04;99837.47;4845623;29;20034;-96
2021/11/12 14:13:47;;;;;;;23.58;3.90;;;;;;;17.84;63.87;99849.59;4855558;29;20064;-96
2021/11/12 14:21:38;;;;;;;29.90;4.50;;;;;;;18.13;61.50;99837.66;4859052;29;20022;-96
2021/11/12 14:40:19;;;;;;;15.80;2.92;;;;;;;17.55;63.00;99827.97;4854318;29;20037;-96
2021/11/12 14:58:20;;;;;;;17.40;3.42;;;;;;;17.31;63.57;99805.69;5119523;23;20064;-96
2021/11/12 15:00:47;;;;;;;24.65;4.32;;;;;;;17.31;63.78;99811.00;4885775;23;20054;-96
2021/11/12 15:03:13;;;;;;;12.75;2.42;;;;;;;17.37;63.40;99820.97;4867828;29;20396;-96
2021/11/12 15:05:39;;;;;;;22.40;4.20;;;;;;;17.47;63.45;99812.03;4853940;29;20129;-93
2021/11/12 15:10:31;;;;;;;24.90;3.67;;;;;;;17.25;63.23;99816.97;4850540;29;20038;-96
2021/11/12 15:12:57;;;;;;;23.75;3.53;;;;;;;16.61;65.62;99819.19;4847532;29;20034;-95
2021/11/12 15:15:23;;;;;;;19.60;3.60;;;;;;;16.99;64.76;99815.22;4845971;29;20033;-96
2021/11/12 15:17:52;;;;;;;21.45;3.55;;;;;;;16.68;65.25;99814.06;4845161;29;20026;-96
2021/11/12 15:20:17;;;;;;;22.63;4.55;;;;;;;17.38;63.94;99819.16;4854286;29;20017;-96
2021/11/12 15:25:23;;;;;;;20.60;3.10;;;;;;;17.44;63.81;99819.31;4880320;23;20393;-96
2021/11/12 15:27:55;;;;;;;15.15;3.83;;;;;;;16.92;64.35;99816.84;4860278;29;20117;-96
2021/11/12 15:30:25;;;;;;;14.70;2.93;;;;;;;17.30;63.97;99809.34;5281684;23;21097;-96
2021/11/12 15:32:58;;;;;;;16.80;3.10;;;;;;;17.27;63.83;99814.16;4866753;29;20034;-94
2021/11/12 15:35:26;;;;;;;17.08;3.00;;;;;;;17.43;63.54;99822.13;4864915;29;20036;-96
2021/11/12 15:38:03;;;;;;;16.50;3.47;;;;;;;17.12;64.38;99804.16;4865562;29;20026;-96
2021/11/12 15:40:33;;;;;;;18.73;3.20;;;;;;;17.25;63.55;99796.56;4862604;29;20033;-94
2021/11/12 15:48:24;;;;;;;21.45;3.47;;;;;;;16.83;64.97;99807.22;4862276;29;20029;-95
2021/11/12 15:53:25;;;;;;;13.82;2.65;;;;;;;17.23;63.88;99809.16;4862097;29;20044;-94
2021/11/12 16:19:26;;;;;;;20.63;4.18;;;;;;;16.24;68.40;99817.63;4861684;29;20082;-94
2021/11/12 16:24:48;;;;;;;19.02;2.65;;;;;;;16.63;68.14;99820.66;4861385;29;20077;-94
2021/11/12 16:27:14;;;;;;;15.65;3.08;;;;;;;16.42;69.43;99825.50;4861657;29;20086;-94
2021/11/12 16:30:05;;;;;;;17.70;3.03;;;;;;;16.71;68.69;99819.06;4861883;29;20117;-94
2021/11/12 16:32:37;;;;;;;20.60;2.60;;;;;;;16.69;68.92;99810.44;4861309;29;20504;-95
2021/11/12 16:35:03;;;;;;;16.80;3.20;;;;;;;16.68;69.47;99824.66;4862087;29;20065;-93
2021/11/12 16:37:31;;;;;;;23.80;3.17;;;;;;;16.90;68.70;99797.59;4861807;29;20369;-94
2021/11/12 16:45:03;;;;;;;35.10;4.70;;;;;;;16.71;69.04;99813.75;4858460;29;20048;-94
2021/11/12 16:52:41;;;;;;;25.60;4.47;;;;;;;15.96;71.75;99830.16;4860987;29;20034;-94
2021/11/12 17:02:53;;;;;;;33.50;5.20;;;;;;;16.03;72.63;99823.25;4860900;29;20044;-92
2021/11/12 17:08:08;;;;;;;25.55;4.18;;;;;;;16.18;71.72;99832.31;4861271;29;20063;-95
2021/11/12 17:11:00;;;;;;;29.92;3.95;;;;;;;15.99;73.37;99833.31;4856258;29;20495;-95
2021/11/12 17:14:32;;;;;;;;;;;;;;;16.03;73.10;99824.09;4858255;29;20038;-95
2021/11/12 17:48:54;;;;;;;24.83;3.90;;;;;;;16.01;74.05;99854.34;4866774;29;20033;-95
2021/11/12 17:51:42;;;;;;;23.15;3.47;;;;;;;16.01;73.96;99859.66;4866374;29;20502;-96
2021/11/12 18:01:36;;;;;;;25.90;4.43;;;;;;;16.12;74.03;99862.06;4875191;29;20025;-95
2021/11/12 18:02:22;;;;;;;20.73;3.47;;;;;;;16.18;73.17;99861.44;4884007;29;20057;-96
2021/11/12 18:15:54;;;;;;;23.70;4.32;;;;;;;15.98;73.96;99854.66;4850294;29;20082;-96
2021/11/12 21:48:30;;;;;;;17.35;3.17;;;;;;;16.29;68.68;100023.78;4905606;23;20086;-93
2021/11/12 21:50:59;;;;;;;11.90;2.40;;;;;;;16.21;68.91;100025.38;4885752;29;20484;-93
2021/11/12 21:53:25;;;;;;;12.02;2.63;;;;;;;16.21;68.82;100024.53;4880016;29;20026;-94
2021/11/12 21:55:51;;;;;;;19.67;2.45;;;;;;;15.90;69.79;100022.22;4882530;29;20025;-94
2021/11/12 21:58:17;;;;;;;12.10;2.10;;;;;;;15.93;68.90;100026.38;4875442;29;20030;-93
2021/11/12 22:00:46;;;;;;;11.55;2.55;;;;;;;15.79;70.02;100020.59;4872499;29;20116;-95
2021/11/12 22:03:11;;;;;;;13.30;2.22;;;;;;;15.65;70.54;100029.00;4863128;29;20024;-96
2021/11/12 22:05:36;;;;;;;9.68;1.88;;;;;;;15.77;70.30;100022.56;4861944;29;20113;-95
2021/11/12 22:08:02;;;;;;;13.73;2.35;;;;;;;15.97;69.94;100033.88;4867248;29;20116;-95